Terminal Aerodrome Forecast
Issued by NWS

Home | Current Version | Previous Version | Text Only | Print | Product List | Glossary On
Versions: 1 2 3 4 5 6 7 8 9 10 11 12 13 14 15 16 17 18 19
000
FTUS45 KTFX 310834 AAB
TAFHVR
TAF AMD
KHVR 310834Z 3109/0106 30019KT P6SM OVC015
     FM311600 32015KT P6SM -SHRA BKN040
     FM312300 29012KT P6SM FEW060=

USA.gov is the U.S. government's official web portal to all federal, state and local government web resources and services.